createdAt,value
2023-09-12T00:00:11.149Z,100497.34
2023-09-12T00:02:40.430Z,100502.63
2023-09-12T00:05:09.014Z,100494.69
2023-09-12T00:07:37.130Z,100491.22
2023-09-12T00:10:05.397Z,100477.00
2023-09-12T00:12:33.229Z,100482.38
2023-09-12T00:15:01.043Z,100477.50
2023-09-12T00:17:28.988Z,100472.38
2023-09-12T00:19:58.144Z,100466.13
2023-09-12T00:22:25.880Z,100460.84
2023-09-12T00:24:53.715Z,100492.34
2023-09-12T00:27:21.483Z,100551.72
2023-09-12T00:29:49.374Z,100595.09
2023-09-12T00:32:17.138Z,100629.00
2023-09-12T00:34:44.975Z,100559.25
2023-09-12T00:37:14.136Z,100497.25
2023-09-12T00:39:41.936Z,100476.56
2023-09-12T00:42:09.730Z,100418.88
2023-09-12T00:44:37.465Z,100423.09
2023-09-12T00:47:05.649Z,100439.22
2023-09-12T00:49:34.636Z,100447.34
2023-09-12T00:52:03.728Z,100460.75
2023-09-12T00:54:33.007Z,100461.13
2023-09-12T00:57:00.850Z,100454.31
2023-09-12T00:59:29.011Z,100459.50
2023-09-12T01:01:57.523Z,100467.41
2023-09-12T01:04:34.821Z,100473.38
2023-09-12T01:07:02.976Z,100475.31
2023-09-12T01:09:35.069Z,100472.44
2023-09-12T01:12:04.105Z,100465.47
2023-09-12T01:14:32.073Z,100465.38
2023-09-12T01:17:00.642Z,100465.38
2023-09-12T01:19:28.387Z,100460.91
2023-09-12T01:22:24.612Z,100457.97
2023-09-12T01:25:10.726Z,100454.75
2023-09-12T01:27:41.801Z,100462.59
2023-09-12T01:30:10.683Z,100455.50
2023-09-12T01:32:38.979Z,100444.03
2023-09-12T01:35:10.722Z,100452.44
2023-09-12T01:37:38.452Z,100467.00
2023-09-12T01:40:08.016Z,100463.88
2023-09-12T01:42:38.813Z,100451.75
2023-09-12T01:45:11.351Z,100463.81
2023-09-12T01:47:39.496Z,100480.06
2023-09-12T01:50:08.406Z,100484.81
2023-09-12T01:52:36.473Z,100466.00
2023-09-12T01:55:04.921Z,100462.44
2023-09-12T01:57:33.829Z,100420.28
2023-09-12T02:00:01.655Z,100422.78
2023-09-12T02:02:30.751Z,100416.34
2023-09-12T02:05:07.514Z,100422.72
2023-09-12T02:07:40.168Z,100395.28
2023-09-12T02:10:08.903Z,100405.91
2023-09-12T02:12:36.675Z,100434.19
2023-09-12T02:15:04.877Z,100437.66
2023-09-12T02:17:36.871Z,100451.53
2023-09-12T02:20:07.140Z,100442.16
2023-09-12T02:22:34.888Z,100435.75
2023-09-12T02:25:05.691Z,100422.47
2023-09-12T02:27:33.675Z,100441.03
2023-09-12T02:30:01.434Z,100450.06
2023-09-12T02:32:31.001Z,100456.16
2023-09-12T02:35:00.120Z,100487.84
2023-09-12T02:37:27.855Z,100506.84
2023-09-12T02:39:55.620Z,100488.28
2023-09-12T02:42:23.638Z,100457.69
2023-09-12T02:44:53.567Z,100462.94
2023-09-12T02:47:21.333Z,100448.84
2023-09-12T02:49:49.053Z,100461.75
2023-09-12T02:52:18.146Z,100495.19
2023-09-12T02:54:46.115Z,100529.09
2023-09-12T02:57:14.373Z,100495.31
2023-09-12T02:59:42.390Z,100447.22
2023-09-12T03:02:10.141Z,100407.53
2023-09-12T03:04:38.284Z,100416.28
2023-09-12T03:07:06.020Z,100414.75
2023-09-12T03:09:35.278Z,100413.66
2023-09-12T03:12:03.502Z,100419.78
2023-09-12T03:14:32.575Z,100434.81
2023-09-12T03:17:02.236Z,100417.09
2023-09-12T03:19:31.990Z,100402.97
2023-09-12T03:22:02.127Z,100403.22
2023-09-12T03:24:30.145Z,100404.63
2023-09-12T03:26:59.470Z,100396.59
2023-09-12T03:29:27.351Z,100394.81
2023-09-12T03:31:55.088Z,100395.50
2023-09-12T03:34:22.834Z,100396.94
2023-09-12T03:36:50.628Z,100395.00
2023-09-12T03:39:20.092Z,100395.81
2023-09-12T03:41:47.814Z,100399.31
2023-09-12T03:44:16.902Z,100396.66
2023-09-12T03:46:44.746Z,100390.31
2023-09-12T03:49:12.484Z,100383.13
2023-09-12T03:51:40.223Z,100384.81
2023-09-12T03:54:08.418Z,100378.31
2023-09-12T03:56:36.326Z,100372.66
2023-09-12T03:59:04.312Z,100353.25
2023-09-12T04:01:33.385Z,100348.56
2023-09-12T04:04:03.974Z,100343.94
2023-09-12T04:06:32.344Z,100346.88
2023-09-12T04:09:00.125Z,100336.34
2023-09-12T04:11:39.770Z,100334.81
2023-09-12T04:14:13.790Z,100349.63
2023-09-12T04:16:42.926Z,100358.94
2023-09-12T04:19:10.753Z,100352.72
2023-09-12T04:21:38.653Z,100355.09
2023-09-12T04:24:07.382Z,100346.03
2023-09-12T04:26:35.320Z,100350.53
2023-09-12T04:29:03.103Z,100356.38
2023-09-12T04:31:30.865Z,100359.13
2023-09-12T04:33:59.993Z,100364.84
2023-09-12T04:36:27.832Z,100360.44
2023-09-12T04:38:55.589Z,100351.41
2023-09-12T04:41:23.859Z,100356.94
2023-09-12T04:43:51.592Z,100373.00
2023-09-12T04:46:19.405Z,100382.47
2023-09-12T04:48:47.360Z,100376.09
2023-09-12T04:51:16.744Z,100387.34
2023-09-12T04:53:45.633Z,100391.63
2023-09-12T04:56:13.410Z,100401.91
2023-09-12T04:58:41.467Z,100407.63
2023-09-12T05:01:09.676Z,100410.00
2023-09-12T05:03:38.270Z,100408.06
2023-09-12T05:06:06.366Z,100415.56
2023-09-12T05:08:35.904Z,100411.00
2023-09-12T05:11:04.093Z,100400.59
2023-09-12T05:13:31.890Z,100407.09
2023-09-12T05:15:59.762Z,100394.56
2023-09-12T05:18:27.579Z,100405.00
2023-09-12T05:20:55.464Z,100428.72
2023-09-12T05:23:23.216Z,100432.75
2023-09-12T05:25:55.673Z,100421.25
2023-09-12T05:28:23.456Z,100398.88
2023-09-12T05:30:52.542Z,100399.94
2023-09-12T05:33:20.609Z,100418.19
2023-09-12T05:35:48.939Z,100424.56
2023-09-12T05:38:16.880Z,100446.06
2023-09-12T05:40:44.627Z,100433.59
2023-09-12T05:43:15.355Z,100449.88
2023-09-12T05:45:43.077Z,100447.56
2023-09-12T05:48:11.435Z,100465.13
2023-09-12T05:50:39.394Z,100450.28
2023-09-12T05:53:07.110Z,100447.31
2023-09-12T05:55:35.000Z,100470.56
2023-09-12T05:58:04.944Z,100467.34
2023-09-12T06:00:34.210Z,100462.47
2023-09-12T06:03:02.252Z,100468.44
2023-09-12T06:05:30.029Z,100473.34
2023-09-12T06:07:57.742Z,100474.34
2023-09-12T06:10:25.489Z,100475.66
2023-09-12T06:12:53.716Z,100488.56
2023-09-12T06:15:21.509Z,100498.97
2023-09-12T06:17:50.754Z,100518.13
2023-09-12T06:20:18.562Z,100563.88
2023-09-12T06:22:46.280Z,100616.84
2023-09-12T06:25:14.019Z,100642.72
2023-09-12T06:27:41.919Z,100649.34
2023-09-12T06:30:10.688Z,100600.03
2023-09-12T06:32:39.698Z,100519.25
2023-09-12T06:35:12.320Z,100487.72
2023-09-12T06:37:40.346Z,100484.56
2023-09-12T06:40:09.712Z,100469.34
2023-09-12T06:42:37.492Z,100440.41
2023-09-12T06:45:05.675Z,100431.81
2023-09-12T06:47:35.413Z,100423.34
2023-09-12T06:50:04.871Z,100411.25
2023-09-12T06:52:35.082Z,100414.03
2023-09-12T06:55:02.790Z,100403.75
2023-09-12T06:57:32.581Z,100422.41
2023-09-12T07:00:00.403Z,100445.50
2023-09-12T07:02:29.002Z,100460.06
2023-09-12T07:04:57.926Z,100470.25
2023-09-12T07:07:25.659Z,100480.03
2023-09-12T07:10:01.680Z,100471.75
2023-09-12T07:12:35.954Z,100476.75
2023-09-12T07:15:03.946Z,100494.09
2023-09-12T07:17:31.977Z,100503.16
2023-09-12T07:20:03.521Z,100507.94
2023-09-12T07:22:31.293Z,100510.19
2023-09-12T07:25:03.149Z,100508.03
2023-09-12T07:27:31.232Z,100487.06
2023-09-12T07:29:59.040Z,100478.59
2023-09-12T07:32:26.800Z,100469.28
2023-09-12T07:34:54.557Z,100478.41
2023-09-12T07:37:22.320Z,100461.88
2023-09-12T07:39:50.138Z,100464.38
2023-09-12T07:42:23.788Z,100456.94
2023-09-12T07:44:51.709Z,100454.66
2023-09-12T07:47:19.469Z,100451.25
2023-09-12T07:49:47.213Z,100439.41
2023-09-12T07:52:15.306Z,100440.94
2023-09-12T07:54:43.125Z,100447.56
2023-09-12T07:57:11.388Z,100445.38
2023-09-12T07:59:40.607Z,100446.06
2023-09-12T08:02:09.178Z,100442.94
2023-09-12T08:04:37.543Z,100435.47
2023-09-12T08:07:05.809Z,100446.84
2023-09-12T08:09:51.873Z,100459.63
2023-09-12T08:12:19.872Z,100464.91
2023-09-12T08:14:49.153Z,100464.69
2023-09-12T08:17:17.737Z,100462.94
2023-09-12T08:19:45.701Z,100459.66
2023-09-12T08:22:14.412Z,100457.16
2023-09-12T08:24:42.286Z,100462.44
2023-09-12T08:27:10.260Z,100456.75
2023-09-12T08:29:38.073Z,100461.75
2023-09-12T08:32:07.590Z,100463.19
2023-09-12T08:34:35.539Z,100466.94
2023-09-12T08:37:03.299Z,100471.84
2023-09-12T08:39:42.640Z,100472.28
2023-09-12T08:42:14.307Z,100478.00
2023-09-12T08:44:45.533Z,100485.81
2023-09-12T08:47:16.395Z,100492.25
2023-09-12T08:49:44.925Z,100490.31
2023-09-12T08:52:12.877Z,100497.69
2023-09-12T08:54:40.727Z,100509.50
2023-09-12T08:57:09.053Z,100506.22
2023-09-12T08:59:37.142Z,100512.63
2023-09-12T09:02:05.368Z,100510.16
2023-09-12T09:04:35.715Z,100502.31
2023-09-12T09:07:03.826Z,100518.16
2023-09-12T09:09:32.437Z,100516.94
2023-09-12T09:12:00.225Z,100517.66
2023-09-12T09:14:27.985Z,100523.00
2023-09-12T09:16:55.925Z,100523.66
2023-09-12T09:19:23.769Z,100528.09
2023-09-12T09:21:52.949Z,100526.00
2023-09-12T09:24:22.978Z,100522.63
2023-09-12T09:26:52.034Z,100531.94
2023-09-12T09:29:20.982Z,100532.47
2023-09-12T09:31:49.862Z,100528.16
2023-09-12T09:34:18.811Z,100533.09
2023-09-12T09:36:50.010Z,100531.66
2023-09-12T09:39:22.703Z,100527.19
2023-09-12T09:41:51.019Z,100533.34
2023-09-12T09:44:19.202Z,100536.31
2023-09-12T09:46:47.879Z,100532.91
2023-09-12T09:49:16.995Z,100532.25
2023-09-12T09:51:45.169Z,100540.38
2023-09-12T09:54:13.794Z,100535.66
2023-09-12T09:56:49.120Z,100531.06
2023-09-12T09:59:18.338Z,100532.38
2023-09-12T10:01:47.039Z,100531.25
2023-09-12T10:04:14.875Z,100531.50
2023-09-12T10:06:45.656Z,100529.72
2023-09-12T10:09:14.537Z,100530.84
2023-09-12T10:11:44.642Z,100528.81
2023-09-12T10:14:14.046Z,100525.44
2023-09-12T10:16:47.588Z,100526.28
2023-09-12T10:19:18.336Z,100525.16
2023-09-12T10:21:50.816Z,100526.19
2023-09-12T10:24:18.922Z,100520.91
2023-09-12T10:26:47.334Z,100520.84
2023-09-12T10:29:17.035Z,100513.97
2023-09-12T10:31:45.058Z,100523.16
2023-09-12T10:34:15.824Z,100519.59
2023-09-12T10:36:46.454Z,100521.25
2023-09-12T10:39:15.949Z,100516.75
2023-09-12T10:41:43.978Z,100514.94
2023-09-12T10:44:14.049Z,100517.78
2023-09-12T10:46:43.808Z,100517.94
2023-09-12T10:49:13.585Z,100525.09
2023-09-12T10:51:42.238Z,100519.25
2023-09-12T10:54:11.111Z,100517.25
2023-09-12T10:56:38.857Z,100509.97
2023-09-12T10:59:16.462Z,100514.94
2023-09-12T11:01:48.232Z,100507.97
2023-09-12T11:04:39.049Z,100505.63
2023-09-12T11:07:31.994Z,100508.63
2023-09-12T11:10:20.715Z,100507.31
2023-09-12T11:12:50.018Z,100502.81
2023-09-12T11:15:18.292Z,100504.66
2023-09-12T11:17:48.467Z,100498.69
2023-09-12T11:20:17.920Z,100497.50
2023-09-12T11:22:47.194Z,100483.00
2023-09-12T11:25:20.127Z,100495.16
2023-09-12T11:28:04.939Z,100501.28
2023-09-12T11:30:33.281Z,100497.63
2023-09-12T11:33:06.514Z,100493.59
2023-09-12T11:35:39.562Z,100486.53
2023-09-12T11:38:12.492Z,100490.34
2023-09-12T11:40:44.950Z,100491.25
2023-09-12T11:43:22.483Z,100494.56
2023-09-12T11:45:50.335Z,100500.13
2023-09-12T11:48:19.918Z,100494.03
2023-09-12T11:50:52.253Z,100488.84
2023-09-12T11:53:21.673Z,100492.25
2023-09-12T11:55:52.445Z,100487.22
2023-09-12T11:58:20.813Z,100482.38
2023-09-12T12:00:50.410Z,100485.22
2023-09-12T12:03:21.131Z,100495.84
2023-09-12T12:05:49.347Z,100491.66
2023-09-12T12:10:52.261Z,100490.44
2023-09-12T12:13:23.839Z,100484.34
2023-09-12T12:15:52.408Z,100493.88
2023-09-12T12:18:21.949Z,100484.81
2023-09-12T12:20:49.811Z,100488.53
2023-09-12T12:23:17.613Z,100493.28
2023-09-12T12:25:45.543Z,100485.78
2023-09-12T12:28:13.572Z,100497.44
2023-09-12T12:30:41.570Z,100487.53
2023-09-12T12:34:00.839Z,100493.25
2023-09-12T12:36:03.597Z,100488.31
2023-09-12T12:38:36.362Z,100483.63
2023-09-12T12:41:07.382Z,100483.72
2023-09-12T12:43:35.226Z,100471.81
2023-09-12T12:46:03.584Z,100464.78
2023-09-12T12:48:32.440Z,100475.19
2023-09-12T12:51:00.734Z,100463.84
2023-09-12T12:53:51.950Z,100468.19
2023-09-12T12:56:23.344Z,100463.34
2023-09-12T12:58:52.444Z,100463.19
2023-09-12T13:01:20.822Z,100452.06
2023-09-12T13:03:51.247Z,100450.03
2023-09-12T13:06:21.106Z,100449.06
2023-09-12T13:08:51.661Z,100447.53
2023-09-12T13:11:22.510Z,100447.34
2023-09-12T13:13:50.852Z,100435.38
2023-09-12T13:16:19.243Z,100422.63
2023-09-12T13:18:47.392Z,100434.84
2023-09-12T13:21:15.352Z,100429.50
2023-09-12T13:23:43.353Z,100429.25
2023-09-12T13:26:12.869Z,100422.06
2023-09-12T13:28:42.866Z,100417.53
2023-09-12T13:31:10.710Z,100405.78
2023-09-12T13:33:38.585Z,100406.66
2023-09-12T13:36:06.972Z,100402.03
2023-09-12T13:38:34.760Z,100412.00
2023-09-12T13:41:02.580Z,100394.13
2023-09-12T13:43:32.674Z,100396.84
2023-09-12T13:46:00.584Z,100403.34
2023-09-12T13:48:28.645Z,100403.13
2023-09-12T13:50:56.461Z,100398.59
2023-09-12T13:53:24.218Z,100403.06
2023-09-12T13:56:01.584Z,100409.28
2023-09-12T13:58:43.276Z,100405.47
2023-09-12T14:01:25.834Z,100411.28
2023-09-12T14:03:59.276Z,100400.44
2023-09-12T14:06:27.578Z,100399.16
2023-09-12T14:08:55.660Z,100404.47
2023-09-12T14:11:31.545Z,100400.63
2023-09-12T14:14:15.147Z,100405.28
2023-09-12T14:16:47.552Z,100398.78
2023-09-12T14:19:16.896Z,100402.00
2023-09-12T14:21:46.406Z,100402.56
2023-09-12T14:24:14.690Z,100400.31
2023-09-12T14:26:42.730Z,100399.88
2023-09-12T14:29:12.694Z,100398.22
2023-09-12T14:31:40.614Z,100396.22
2023-09-12T14:34:09.358Z,100394.91
2023-09-12T14:36:37.517Z,100383.78
2023-09-12T14:39:05.640Z,100388.94
2023-09-12T14:41:33.488Z,100390.59
2023-09-12T14:44:01.281Z,100391.94
2023-09-12T14:46:30.555Z,100379.31
2023-09-12T14:49:02.607Z,100390.59
2023-09-12T14:51:34.152Z,100393.03
2023-09-12T14:54:02.985Z,100380.25
2023-09-12T14:56:33.433Z,100372.56
2023-09-12T14:59:01.701Z,100388.22
2023-09-12T15:01:31.398Z,100381.06
2023-09-12T15:03:59.384Z,100380.91
2023-09-12T15:06:27.303Z,100380.47
2023-09-12T15:08:55.350Z,100375.13
2023-09-12T15:11:23.191Z,100369.47
2023-09-12T15:13:51.291Z,100364.66
2023-09-12T15:16:19.411Z,100359.81
2023-09-12T15:18:50.456Z,100366.47
2023-09-12T15:21:18.392Z,100373.16
2023-09-12T15:23:46.475Z,100368.34
2023-09-12T15:26:14.575Z,100359.22
2023-09-12T15:28:42.585Z,100359.28
2023-09-12T15:31:10.601Z,100356.97
2023-09-12T15:33:38.514Z,100354.00
2023-09-12T15:36:07.941Z,100351.03
2023-09-12T15:38:36.047Z,100349.03
2023-09-12T15:41:04.242Z,100352.38
2023-09-12T15:43:32.011Z,100346.38
2023-09-12T15:45:59.846Z,100349.38
2023-09-12T15:48:27.727Z,100353.03
2023-09-12T15:50:56.718Z,100353.38
2023-09-12T15:53:26.366Z,100358.03
2023-09-12T15:55:54.293Z,100358.38
2023-09-12T15:58:22.129Z,100354.06
2023-09-12T16:00:50.242Z,100355.38
2023-09-12T16:03:18.347Z,100352.72
2023-09-12T16:05:48.267Z,100341.59
2023-09-12T16:08:19.358Z,100354.22
2023-09-12T16:10:48.505Z,100357.03
2023-09-12T16:13:16.323Z,100353.72
2023-09-12T16:15:44.112Z,100345.41
2023-09-12T16:18:11.944Z,100345.41
2023-09-12T16:20:39.720Z,100355.72
2023-09-12T16:23:07.474Z,100346.56
2023-09-12T16:25:35.710Z,100348.91
2023-09-12T16:28:05.620Z,100349.56
2023-09-12T16:30:33.747Z,100352.22
2023-09-12T16:33:01.840Z,100356.56
2023-09-12T16:35:30.045Z,100358.03
2023-09-12T16:37:58.021Z,100359.84
2023-09-12T16:40:25.817Z,100356.00
2023-09-12T16:42:55.804Z,100362.97
2023-09-12T16:45:25.100Z,100359.28
2023-09-12T16:47:52.916Z,100371.06
2023-09-12T16:50:21.277Z,100370.03
2023-09-12T16:52:49.049Z,100369.53
2023-09-12T16:55:17.467Z,100371.84
2023-09-12T16:57:45.242Z,100374.16
2023-09-12T17:00:14.191Z,100370.78
2023-09-12T17:02:45.177Z,100370.13
2023-09-12T17:05:13.237Z,100374.59
2023-09-12T17:07:41.071Z,100365.59
2023-09-12T17:10:09.555Z,100358.91
2023-09-12T17:12:37.854Z,100349.38
2023-09-12T17:15:06.858Z,100358.22
2023-09-12T17:17:34.844Z,100360.28
2023-09-12T17:20:04.088Z,100363.22
2023-09-12T17:22:31.866Z,100360.28
2023-09-12T17:24:59.890Z,100367.25
2023-09-12T17:27:30.160Z,100367.25
2023-09-12T17:29:58.032Z,100372.56
2023-09-12T17:32:28.594Z,100369.41
2023-09-12T17:34:56.970Z,100369.13
2023-09-12T17:37:26.146Z,100373.38
2023-09-12T17:39:54.182Z,100364.16
2023-09-12T17:42:22.192Z,100371.44
2023-09-12T17:44:49.955Z,100367.63
2023-09-12T17:47:17.955Z,100387.09
2023-09-12T17:49:45.842Z,100391.84
2023-09-12T17:52:13.643Z,100392.69
2023-09-12T17:54:42.830Z,100392.41
2023-09-12T17:57:11.033Z,100390.44
2023-09-12T17:59:40.711Z,100402.41
2023-09-12T18:02:08.915Z,100395.13
2023-09-12T18:04:37.189Z,100397.31
2023-09-12T18:07:06.037Z,100393.16
2023-09-12T18:09:35.645Z,100400.81
2023-09-12T18:12:05.423Z,100419.72
2023-09-12T18:14:33.199Z,100412.09
2023-09-12T18:17:01.243Z,100407.38
2023-09-12T18:19:29.371Z,100419.94
2023-09-12T18:21:57.341Z,100422.22
2023-09-12T18:24:27.719Z,100423.50
2023-09-12T18:26:55.579Z,100428.41
2023-09-12T18:29:24.820Z,100430.69
2023-09-12T18:31:52.857Z,100427.13
2023-09-12T18:34:22.133Z,100437.72
2023-09-12T18:36:50.288Z,100451.00
2023-09-12T18:39:19.019Z,100441.00
2023-09-12T18:41:47.859Z,100450.88
2023-09-12T18:44:15.830Z,100454.78
2023-09-12T18:46:45.661Z,100459.53
2023-09-12T18:49:13.754Z,100465.94
2023-09-12T18:51:42.627Z,100460.66
2023-09-12T18:54:19.809Z,100441.38
2023-09-12T18:56:47.805Z,100449.25
2023-09-12T18:59:15.666Z,100450.00
2023-09-12T19:01:45.103Z,100430.69
2023-09-12T19:04:26.282Z,100442.94
2023-09-12T19:06:54.857Z,100440.56
2023-09-12T19:09:22.709Z,100440.19
2023-09-12T19:11:51.322Z,100430.88
2023-09-12T19:14:19.336Z,100429.63
2023-09-12T19:16:48.743Z,100425.59
2023-09-12T19:19:16.535Z,100420.75
2023-09-12T19:21:44.416Z,100431.09
2023-09-12T19:24:12.983Z,100419.84
2023-09-12T19:26:40.821Z,100424.97
2023-09-12T19:29:08.630Z,100426.94
2023-09-12T19:31:36.505Z,100423.78
2023-09-12T19:34:06.292Z,100415.31
2023-09-12T19:36:34.655Z,100419.22
2023-09-12T19:39:03.104Z,100413.09
2023-09-12T19:41:32.248Z,100413.19
2023-09-12T19:44:00.248Z,100418.34
2023-09-12T19:46:28.053Z,100411.97
2023-09-12T19:48:59.204Z,100416.13
2023-09-12T19:51:28.772Z,100399.72
2023-09-12T19:53:56.611Z,100398.88
2023-09-12T19:56:24.446Z,100397.19
2023-09-12T19:58:52.330Z,100391.66
2023-09-12T20:01:20.265Z,100386.22
2023-09-12T20:03:48.604Z,100378.44
2023-09-12T20:06:16.994Z,100375.13
2023-09-12T20:08:46.505Z,100368.31
2023-09-12T20:11:14.388Z,100367.91
2023-09-12T20:16:16.252Z,100371.06
2023-09-12T20:18:44.627Z,100380.94
2023-09-12T20:21:12.546Z,100378.41
2023-09-12T20:23:40.660Z,100388.97
2023-09-12T20:26:10.636Z,100389.66
2023-09-12T20:28:39.501Z,100393.00
2023-09-12T20:31:07.522Z,100395.38
2023-09-12T20:33:35.500Z,100389.28
2023-09-12T20:36:04.172Z,100383.16
2023-09-12T20:38:32.070Z,100393.00
2023-09-12T20:40:59.891Z,100388.00
2023-09-12T20:43:30.650Z,100388.84
2023-09-12T20:45:58.576Z,100383.00
2023-09-12T20:48:26.543Z,100387.03
2023-09-12T20:50:55.400Z,100374.81
2023-09-12T20:53:23.228Z,100372.16
2023-09-12T20:55:51.086Z,100364.25
2023-09-12T20:58:18.918Z,100360.66
2023-09-12T21:00:48.193Z,100358.00
2023-09-12T21:03:16.093Z,100366.06
2023-09-12T21:05:46.033Z,100372.16
2023-09-12T21:08:14.406Z,100372.16
2023-09-12T21:10:42.405Z,100384.97
2023-09-12T21:13:10.946Z,100390.78
2023-09-12T21:15:39.007Z,100388.31
2023-09-12T21:18:08.563Z,100393.16
2023-09-12T21:20:36.346Z,100407.31
2023-09-12T21:23:04.759Z,100408.00
2023-09-12T21:25:32.501Z,100408.88
2023-09-12T21:28:00.339Z,100414.41
2023-09-12T21:30:28.355Z,100410.53
2023-09-12T21:32:56.250Z,100415.50
2023-09-12T21:35:25.530Z,100414.69
2023-09-12T21:37:53.330Z,100418.31
2023-09-12T21:40:22.154Z,100417.47
2023-09-12T21:42:50.093Z,100424.13
2023-09-12T21:45:17.936Z,100425.78
2023-09-12T21:47:46.718Z,100424.97
2023-09-12T21:50:18.106Z,100421.22
2023-09-12T21:52:47.273Z,100422.88
2023-09-12T21:55:15.088Z,100434.41
2023-09-12T21:57:42.904Z,100442.75
2023-09-12T22:00:23.886Z,100442.75
2023-09-12T22:02:52.771Z,100444.69
2023-09-12T22:05:21.138Z,100433.97
2023-09-12T22:07:50.395Z,100434.56
2023-09-12T22:10:18.816Z,100426.06
2023-09-12T22:12:48.990Z,100433.00
2023-09-12T22:15:17.813Z,100432.19
2023-09-12T22:17:45.795Z,100430.63
2023-09-12T22:20:16.886Z,100418.13
2023-09-12T22:22:46.071Z,100426.47
2023-09-12T22:25:15.552Z,100432.00
2023-09-12T22:27:44.182Z,100425.19
2023-09-12T22:30:12.315Z,100429.06
2023-09-12T22:32:40.911Z,100430.03
2023-09-12T22:35:09.707Z,100429.31
2023-09-12T22:37:37.592Z,100429.31
2023-09-12T22:40:07.940Z,100421.69
2023-09-12T22:42:38.825Z,100412.81
2023-09-12T22:45:08.162Z,100414.75
2023-09-12T22:47:35.981Z,100420.97
2023-09-12T22:50:07.864Z,100420.50
2023-09-12T22:52:35.813Z,100412.03
2023-09-12T22:55:05.853Z,100429.81
2023-09-12T22:57:34.160Z,100424.69
2023-09-12T23:00:06.486Z,100410.88
2023-09-12T23:02:34.352Z,100426.16
2023-09-12T23:05:02.408Z,100431.72
2023-09-12T23:07:30.160Z,100430.31
2023-09-12T23:09:58.069Z,100427.22
2023-09-12T23:12:28.519Z,100434.28
2023-09-12T23:14:59.339Z,100429.16
2023-09-12T23:17:28.571Z,100423.03
2023-09-12T23:19:56.370Z,100425.81
2023-09-12T23:22:24.179Z,100419.69
2023-09-12T23:24:51.970Z,100423.19
2023-09-12T23:27:19.848Z,100392.75
2023-09-12T23:29:47.614Z,100413.59
2023-09-12T23:32:15.508Z,100409.16
2023-09-12T23:34:44.704Z,100411.09
2023-09-12T23:37:13.165Z,100406.06
2023-09-12T23:39:41.111Z,100404.56
2023-09-12T23:42:08.915Z,100398.56
2023-09-12T23:44:36.847Z,100402.19
2023-09-12T23:47:04.887Z,100404.00
2023-09-12T23:49:32.641Z,100397.16
2023-09-12T23:52:01.864Z,100392.88
2023-09-12T23:54:30.686Z,100385.47
2023-09-12T23:56:58.615Z,100379.94
2023-09-12T23:59:26.402Z,100371.34
